createdAt,value
2018-05-16T00:01:41.712Z,97074.14
2018-05-16T00:04:12.745Z,97079.52
2018-05-16T00:06:43.745Z,97082.25
2018-05-16T00:09:14.737Z,97078.92
2018-05-16T00:11:45.720Z,97076.89
2018-05-16T00:14:16.731Z,97077.41
2018-05-16T00:16:47.710Z,97081.78
2018-05-16T00:19:18.772Z,97078.75
2018-05-16T00:21:49.760Z,97072.34
2018-05-16T00:24:20.775Z,97074.16
2018-05-16T00:26:51.760Z,97079.51
2018-05-16T00:29:22.824Z,97074.23
2018-05-16T00:31:53.802Z,97070.66
2018-05-16T00:34:24.795Z,97073.25
2018-05-16T00:36:55.794Z,97079.13
2018-05-16T00:39:26.820Z,97081.87
2018-05-16T00:41:57.811Z,97077.20
2018-05-16T00:44:28.828Z,97081.48
2018-05-16T00:46:59.849Z,97079.75
2018-05-16T00:49:30.854Z,97079.78
2018-05-16T00:52:01.861Z,97084.11
2018-05-16T00:54:32.878Z,97083.14
2018-05-16T00:57:03.869Z,97079.83
2018-05-16T00:59:34.911Z,97074.61
2018-05-16T01:02:05.856Z,97083.69
2018-05-16T01:04:36.853Z,97081.41
2018-05-16T01:07:07.855Z,97085.62
2018-05-16T01:09:38.853Z,97078.16
2018-05-16T01:12:09.847Z,97084.09
2018-05-16T01:14:40.854Z,97077.93
2018-05-16T01:17:11.845Z,97077.66
2018-05-16T01:19:42.858Z,97073.77
2018-05-16T01:22:13.846Z,97076.14
2018-05-16T01:24:44.872Z,97068.23
2018-05-16T01:27:15.879Z,97071.28
2018-05-16T01:29:46.915Z,97066.72
2018-05-16T01:32:17.950Z,97075.95
2018-05-16T01:34:48.949Z,97071.02
2018-05-16T01:37:19.925Z,97074.20
2018-05-16T01:39:50.987Z,97081.58
2018-05-16T01:42:21.934Z,97073.81
2018-05-16T01:44:52.929Z,97076.41
2018-05-16T01:47:23.922Z,97077.73
2018-05-16T01:49:54.942Z,97080.50
2018-05-16T01:52:25.938Z,97079.05
2018-05-16T01:54:56.991Z,97079.06
2018-05-16T01:57:28.008Z,97074.67
2018-05-16T01:59:59.018Z,97075.46
2018-05-16T02:02:29.982Z,97069.50
2018-05-16T02:05:00.989Z,97077.72
2018-05-16T02:07:31.960Z,97081.81
2018-05-16T02:10:03.042Z,97070.41
2018-05-16T02:12:34.053Z,97080.44
2018-05-16T02:15:05.101Z,97076.58
2018-05-16T02:17:36.082Z,97085.64
2018-05-16T02:20:07.112Z,97083.11
2018-05-16T02:22:38.110Z,97088.66
2018-05-16T02:25:09.089Z,97084.44
2018-05-16T02:27:40.097Z,97087.09
2018-05-16T02:30:11.098Z,97086.43
2018-05-16T02:32:42.151Z,97082.64
2018-05-16T02:35:13.101Z,97082.11
2018-05-16T02:37:44.102Z,97082.47
2018-05-16T02:40:15.100Z,97081.30
2018-05-16T02:42:46.131Z,97078.78
2018-05-16T02:45:17.094Z,97079.83
2018-05-16T02:47:48.126Z,97075.99
2018-05-16T02:50:19.132Z,97080.30
2018-05-16T02:52:50.187Z,97075.67
2018-05-16T02:55:21.160Z,97070.51
2018-05-16T02:57:52.161Z,97074.70
2018-05-16T03:00:23.173Z,97071.92
2018-05-16T03:02:54.162Z,97080.02
2018-05-16T03:05:25.156Z,97074.19
2018-05-16T03:07:56.192Z,97078.46
2018-05-16T03:10:27.168Z,97075.32
2018-05-16T03:12:58.179Z,97084.27
2018-05-16T03:15:29.161Z,97079.28
2018-05-16T03:18:00.227Z,97078.83
2018-05-16T03:20:31.240Z,97077.62
2018-05-16T03:23:02.265Z,97078.88
2018-05-16T03:25:33.243Z,97077.59
2018-05-16T03:28:04.267Z,97075.83
2018-05-16T03:30:35.216Z,97082.83
2018-05-16T03:33:06.213Z,97078.75
2018-05-16T03:35:37.196Z,97079.29
2018-05-16T03:38:08.237Z,97080.39
2018-05-16T03:40:39.242Z,97075.22
2018-05-16T03:43:10.226Z,97073.84
2018-05-16T03:45:41.197Z,97077.22
2018-05-16T03:48:12.249Z,97080.61
2018-05-16T03:50:43.250Z,97072.83
2018-05-16T03:53:14.253Z,97082.27
2018-05-16T03:55:45.258Z,97079.44
2018-05-16T03:58:28.425Z,97079.44
2018-05-16T04:01:11.624Z,97079.02
2018-05-16T04:03:54.878Z,97074.81
2018-05-16T04:06:25.850Z,97078.67
2018-05-16T04:08:56.863Z,97080.78
2018-05-16T04:11:27.879Z,97073.06
2018-05-16T04:13:58.904Z,97080.20
2018-05-16T04:16:29.880Z,97075.20
2018-05-16T04:19:00.876Z,97082.28
2018-05-16T04:21:31.817Z,97080.88
2018-05-16T04:24:02.828Z,97076.17
2018-05-16T04:26:33.913Z,97080.34
2018-05-16T04:29:04.937Z,97080.08
2018-05-16T04:31:35.920Z,97081.52
2018-05-16T04:34:06.992Z,97078.70
2018-05-16T04:36:38.007Z,97079.11
2018-05-16T04:39:08.993Z,97085.27
2018-05-16T04:41:40.049Z,97084.39
2018-05-16T04:44:11.070Z,97084.23
2018-05-16T04:46:42.028Z,97089.80
2018-05-16T04:49:13.050Z,97086.95
2018-05-16T04:51:44.046Z,97087.27
2018-05-16T04:54:15.103Z,97088.30
2018-05-16T04:56:46.151Z,97088.95
2018-05-16T04:59:17.159Z,97091.53
2018-05-16T05:01:48.178Z,97090.66
2018-05-16T05:04:19.168Z,97099.86
2018-05-16T05:06:50.132Z,97099.92
2018-05-16T05:09:21.134Z,97096.89
2018-05-16T05:11:52.131Z,97095.81
2018-05-16T05:14:23.134Z,97094.96
2018-05-16T05:16:54.128Z,97093.35
2018-05-16T05:19:25.126Z,97094.88
2018-05-16T05:21:56.136Z,97096.45
2018-05-16T05:24:27.154Z,97095.47
2018-05-16T05:26:58.193Z,97096.52
2018-05-16T05:29:29.175Z,97091.56
2018-05-16T05:32:00.195Z,97096.34
2018-05-16T05:34:31.161Z,97094.64
2018-05-16T05:37:02.198Z,97091.92
2018-05-16T05:39:33.246Z,97090.41
2018-05-16T05:42:04.229Z,97090.98
2018-05-16T05:44:35.253Z,97086.50
2018-05-16T05:47:06.246Z,97092.15
2018-05-16T05:49:37.249Z,97089.28
2018-05-16T05:52:08.291Z,97083.05
2018-05-16T05:54:39.280Z,97088.36
2018-05-16T05:57:10.270Z,97087.59
2018-05-16T05:59:41.244Z,97091.68
2018-05-16T06:02:12.252Z,97092.39
2018-05-16T06:04:43.284Z,97092.97
2018-05-16T06:07:14.303Z,97093.52
2018-05-16T06:09:45.290Z,97089.22
2018-05-16T06:12:16.320Z,97089.23
2018-05-16T06:14:47.330Z,97092.13
2018-05-16T06:17:18.318Z,97093.42
2018-05-16T06:19:49.344Z,97093.92
2018-05-16T06:22:20.310Z,97090.03
2018-05-16T06:24:51.320Z,97086.00
2018-05-16T06:27:22.383Z,97079.19
2018-05-16T06:29:53.712Z,97084.23
2018-05-16T06:32:24.746Z,97088.00
2018-05-16T06:34:55.762Z,97084.59
2018-05-16T06:37:26.841Z,97088.08
2018-05-16T06:39:57.815Z,97088.36
2018-05-16T06:42:28.833Z,97091.51
2018-05-16T06:44:59.848Z,97093.65
2018-05-16T06:47:30.877Z,97100.94
2018-05-16T06:50:01.888Z,97095.91
2018-05-16T06:52:32.927Z,97097.23
2018-05-16T06:55:03.985Z,97091.34
2018-05-16T06:57:35.017Z,97091.92
2018-05-16T07:00:06.026Z,97094.56
2018-05-16T07:02:37.030Z,97098.48
2018-05-16T07:05:08.041Z,97100.70
2018-05-16T07:07:39.022Z,97102.13
2018-05-16T07:10:09.972Z,97107.95
2018-05-16T07:12:40.992Z,97110.32
2018-05-16T07:15:11.969Z,97111.60
2018-05-16T07:17:42.999Z,97112.27
2018-05-16T07:20:14.007Z,97106.48
2018-05-16T07:22:45.039Z,97104.50
2018-05-16T07:25:16.072Z,97110.81
2018-05-16T07:27:47.037Z,97114.39
2018-05-16T07:30:18.033Z,97110.98
2018-05-16T07:32:49.053Z,97113.09
2018-05-16T07:35:20.151Z,97114.27
2018-05-16T07:37:51.171Z,97112.13
2018-05-16T07:40:22.206Z,97115.27
2018-05-16T07:42:53.204Z,97110.07
2018-05-16T07:45:24.220Z,97109.78
2018-05-16T07:47:55.208Z,97111.83
2018-05-16T07:50:26.227Z,97119.06
2018-05-16T07:52:57.307Z,97124.08
2018-05-16T07:55:28.270Z,97128.15
2018-05-16T07:57:59.298Z,97123.09
2018-05-16T08:00:30.271Z,97117.69
2018-05-16T08:03:01.286Z,97114.81
2018-05-16T08:05:32.276Z,97120.47
2018-05-16T08:08:03.319Z,97117.11
2018-05-16T08:10:34.307Z,97115.14
2018-05-16T08:13:05.356Z,97122.09
2018-05-16T08:15:36.351Z,97119.26
2018-05-16T08:18:07.335Z,97127.42
2018-05-16T08:20:38.405Z,97125.12
2018-05-16T08:23:09.355Z,97129.02
2018-05-16T08:25:40.430Z,97124.31
2018-05-16T08:28:11.461Z,97125.78
2018-05-16T08:30:49.485Z,97128.69
2018-05-16T08:33:20.432Z,97127.33
2018-05-16T08:35:51.489Z,97129.33
2018-05-16T08:38:22.541Z,97127.66
2018-05-16T08:40:53.521Z,97130.18
2018-05-16T08:43:24.533Z,97127.94
2018-05-16T08:45:55.548Z,97130.15
2018-05-16T08:48:26.606Z,97137.73
2018-05-16T08:50:57.573Z,97134.30
2018-05-16T08:53:28.576Z,97131.33
2018-05-16T08:55:59.588Z,97132.91
2018-05-16T08:58:30.604Z,97136.09
2018-05-16T09:01:01.584Z,97139.03
2018-05-16T09:03:32.620Z,97142.55
2018-05-16T09:06:03.642Z,97140.03
2018-05-16T09:08:34.602Z,97144.80
2018-05-16T09:11:05.603Z,97144.25
2018-05-16T09:13:36.562Z,97143.24
2018-05-16T09:16:07.602Z,97146.76
2018-05-16T09:18:38.618Z,97151.33
2018-05-16T09:21:09.596Z,97150.37
2018-05-16T09:23:40.606Z,97142.27
2018-05-16T09:26:11.598Z,97147.04
2018-05-16T09:28:42.607Z,97149.14
2018-05-16T09:31:13.573Z,97146.94
2018-05-16T09:33:44.612Z,97147.52
2018-05-16T09:36:15.582Z,97140.67
2018-05-16T09:38:46.573Z,97148.84
2018-05-16T09:41:17.556Z,97143.17
2018-05-16T09:43:48.570Z,97133.70
2018-05-16T09:46:19.732Z,97136.20
2018-05-16T09:48:50.759Z,97145.52
2018-05-16T09:51:21.898Z,97143.41
2018-05-16T09:53:52.889Z,97146.46
2018-05-16T09:56:23.973Z,97151.48
2018-05-16T09:58:54.947Z,97153.59
2018-05-16T10:01:25.960Z,97152.92
2018-05-16T10:03:56.996Z,97155.81
2018-05-16T10:06:28.023Z,97158.20
2018-05-16T10:08:59.028Z,97163.03
2018-05-16T10:11:30.162Z,97166.09
2018-05-16T10:14:01.137Z,97165.78
2018-05-16T10:16:32.166Z,97164.05
2018-05-16T10:19:03.194Z,97165.46
2018-05-16T10:21:34.213Z,97167.33
2018-05-16T10:24:05.265Z,97170.98
2018-05-16T10:26:36.232Z,97168.98
2018-05-16T10:29:07.226Z,97167.17
2018-05-16T10:31:38.194Z,97169.80
2018-05-16T10:34:09.211Z,97169.61
2018-05-16T10:36:40.172Z,97176.08
2018-05-16T10:39:11.223Z,97174.30
2018-05-16T10:41:42.210Z,97176.94
2018-05-16T10:44:13.236Z,97174.88
2018-05-16T10:46:44.264Z,97179.79
2018-05-16T10:49:15.266Z,97171.18
2018-05-16T10:51:46.280Z,97171.33
2018-05-16T10:54:17.269Z,97171.81
2018-05-16T10:56:48.262Z,97169.61
2018-05-16T10:59:19.272Z,97163.16
2018-05-16T11:01:50.255Z,97170.56
2018-05-16T11:04:21.228Z,97171.55
2018-05-16T11:06:52.227Z,97159.72
2018-05-16T11:09:23.257Z,97159.97
2018-05-16T11:11:54.309Z,97148.56
2018-05-16T11:14:25.298Z,97147.20
2018-05-16T11:16:56.322Z,97153.23
2018-05-16T11:19:27.297Z,97148.83
2018-05-16T11:21:58.300Z,97147.97
2018-05-16T11:24:29.304Z,97145.13
2018-05-16T11:27:00.318Z,97147.23
2018-05-16T11:29:31.303Z,97150.09
2018-05-16T11:32:02.332Z,97155.34
2018-05-16T11:34:33.318Z,97154.33
2018-05-16T11:37:04.366Z,97151.83
2018-05-16T11:39:35.327Z,97148.08
2018-05-16T11:42:06.330Z,97150.41
2018-05-16T11:44:37.321Z,97150.24
2018-05-16T11:47:08.331Z,97150.73
2018-05-16T11:49:39.352Z,97148.73
2018-05-16T11:52:10.334Z,97137.83
2018-05-16T11:54:41.356Z,97133.77
2018-05-16T11:57:12.330Z,97129.73
2018-05-16T11:59:43.367Z,97131.55
2018-05-16T12:02:14.378Z,97123.70
2018-05-16T12:04:45.383Z,97122.91
2018-05-16T12:07:16.394Z,97130.56
2018-05-16T12:09:47.391Z,97128.50
2018-05-16T12:12:18.386Z,97123.98
2018-05-16T12:14:49.455Z,97119.07
2018-05-16T12:17:20.451Z,97114.98
2018-05-16T12:19:51.439Z,97122.11
2018-05-16T12:22:22.410Z,97113.42
2018-05-16T12:24:53.391Z,97107.89
2018-05-16T12:27:24.412Z,97115.98
2018-05-16T12:29:55.492Z,97115.08
2018-05-16T12:32:26.457Z,97113.21
2018-05-16T12:34:57.427Z,97109.52
2018-05-16T12:37:28.473Z,97101.30
2018-05-16T12:39:59.466Z,97106.89
2018-05-16T12:42:30.463Z,97112.42
2018-05-16T12:45:01.462Z,97119.14
2018-05-16T12:47:32.456Z,97113.83
2018-05-16T12:50:03.490Z,97112.94
2018-05-16T12:52:34.503Z,97117.15
2018-05-16T12:55:05.504Z,97121.74
2018-05-16T12:57:36.449Z,97126.16
2018-05-16T13:00:07.476Z,97126.53
2018-05-16T13:02:38.462Z,97123.44
2018-05-16T13:05:09.469Z,97130.46
2018-05-16T13:07:40.435Z,97143.14
2018-05-16T13:10:11.492Z,97172.11
2018-05-16T13:12:42.494Z,97193.16
2018-05-16T13:15:13.507Z,97214.70
2018-05-16T13:17:44.582Z,97225.98
2018-05-16T13:20:15.586Z,97243.48
2018-05-16T13:22:46.582Z,97246.44
2018-05-16T13:25:17.618Z,97250.42
2018-05-16T13:27:48.617Z,97255.09
2018-05-16T13:30:19.622Z,97258.09
2018-05-16T13:32:50.598Z,97248.80
2018-05-16T13:35:21.634Z,97240.20
2018-05-16T13:37:52.581Z,97240.20
2018-05-16T13:40:23.684Z,97228.81
2018-05-16T13:42:54.664Z,97236.30
2018-05-16T13:45:25.631Z,97239.02
2018-05-16T13:47:56.616Z,97239.06
2018-05-16T13:50:27.562Z,97238.45
2018-05-16T13:52:58.559Z,97235.84
2018-05-16T13:55:29.572Z,97240.53
2018-05-16T13:58:00.590Z,97235.22
2018-05-16T14:00:31.563Z,97235.39
2018-05-16T14:03:02.608Z,97237.97
2018-05-16T14:05:33.669Z,97244.53
2018-05-16T14:08:04.684Z,97242.70
2018-05-16T14:10:35.697Z,97238.22
2018-05-16T14:13:06.715Z,97240.91
2018-05-16T14:15:37.752Z,97244.38
2018-05-16T14:18:08.705Z,97242.12
2018-05-16T14:20:39.738Z,97242.87
2018-05-16T14:23:10.762Z,97237.09
2018-05-16T14:25:41.794Z,97237.80
2018-05-16T14:28:12.852Z,97239.05
2018-05-16T14:30:43.947Z,97233.27
2018-05-16T14:33:14.967Z,97238.20
2018-05-16T14:35:45.982Z,97233.41
2018-05-16T14:38:16.970Z,97228.17
2018-05-16T14:40:48.011Z,97231.41
2018-05-16T14:43:19.022Z,97233.53
2018-05-16T14:45:50.028Z,97237.19
2018-05-16T14:48:20.990Z,97239.30
2018-05-16T14:50:52.009Z,97252.13
2018-05-16T14:53:23.036Z,97243.19
2018-05-16T14:55:54.054Z,97245.86
2018-05-16T14:58:25.047Z,97237.09
2018-05-16T15:00:56.218Z,97234.97
2018-05-16T15:03:27.199Z,97233.78
2018-05-16T15:05:58.276Z,97229.19
2018-05-16T15:08:29.230Z,97223.61
2018-05-16T15:11:00.272Z,97227.97
2018-05-16T15:13:31.258Z,97229.64
2018-05-16T15:16:02.266Z,97234.14
2018-05-16T15:18:33.250Z,97231.94
2018-05-16T15:21:04.265Z,97233.00
2018-05-16T15:23:35.266Z,97226.98
2018-05-16T15:26:06.399Z,97231.32
2018-05-16T15:28:37.371Z,97231.81
2018-05-16T15:31:08.377Z,97230.55
2018-05-16T15:33:39.343Z,97223.00
2018-05-16T15:36:10.394Z,97230.48
2018-05-16T15:38:41.402Z,97229.30
2018-05-16T15:41:12.413Z,97228.63
2018-05-16T15:43:43.471Z,97226.43
2018-05-16T15:46:14.491Z,97226.13
2018-05-16T15:48:45.537Z,97226.04
2018-05-16T15:51:16.522Z,97222.72
2018-05-16T15:53:47.552Z,97220.19
2018-05-16T15:56:18.519Z,97219.19
2018-05-16T15:58:49.547Z,97217.58
2018-05-16T16:01:20.602Z,97216.38
2018-05-16T16:03:51.647Z,97221.22
2018-05-16T16:06:22.614Z,97218.03
2018-05-16T16:08:53.621Z,97223.28
2018-05-16T16:11:24.618Z,97223.76
2018-05-16T16:13:55.723Z,97220.40
2018-05-16T16:16:26.696Z,97216.70
2018-05-16T16:18:57.896Z,97220.34
2018-05-16T16:21:28.915Z,97223.05
2018-05-16T16:23:59.935Z,97216.84
2018-05-16T16:26:30.930Z,97214.19
2018-05-16T16:29:01.964Z,97219.00
2018-05-16T16:31:32.987Z,97224.55
2018-05-16T16:34:04.060Z,97234.83
2018-05-16T16:36:35.041Z,97240.22
2018-05-16T16:39:06.157Z,97227.48
2018-05-16T16:41:37.084Z,97226.85
2018-05-16T16:44:08.091Z,97229.34
2018-05-16T16:46:39.141Z,97233.19
2018-05-16T16:49:10.111Z,97228.34
2018-05-16T16:51:41.153Z,97230.77
2018-05-16T16:54:12.194Z,97237.03
2018-05-16T16:56:43.310Z,97243.28
2018-05-16T16:59:14.390Z,97244.66
2018-05-16T17:01:45.415Z,97243.53
2018-05-16T17:04:16.574Z,97247.26
2018-05-16T17:06:47.552Z,97252.78
2018-05-16T17:09:18.607Z,97251.36
2018-05-16T17:11:49.590Z,97249.52
2018-05-16T17:14:20.667Z,97259.70
2018-05-16T17:16:51.751Z,97259.45
2018-05-16T17:19:22.803Z,97256.06
2018-05-16T17:21:53.838Z,97250.59
2018-05-16T17:24:24.838Z,97247.45
2018-05-16T17:26:55.978Z,97245.27
2018-05-16T17:29:26.916Z,97241.06
2018-05-16T17:31:57.929Z,97244.34
2018-05-16T17:34:28.894Z,97252.26
2018-05-16T17:37:00.067Z,97253.30
2018-05-16T17:39:31.111Z,97255.89
2018-05-16T17:42:02.142Z,97268.73
2018-05-16T17:44:33.170Z,97273.27
2018-05-16T17:47:04.226Z,97277.87
2018-05-16T17:49:35.210Z,97277.38
2018-05-16T17:52:06.350Z,97279.05
2018-05-16T17:54:37.395Z,97279.74
2018-05-16T17:57:08.530Z,97286.88
2018-05-16T17:59:39.526Z,97288.60
2018-05-16T18:02:10.571Z,97281.22
2018-05-16T18:04:41.558Z,97282.00
2018-05-16T18:07:12.637Z,97283.56
2018-05-16T18:09:43.689Z,97279.16
2018-05-16T18:12:14.708Z,97283.56
2018-05-16T18:17:51.279Z,97283.67
2018-05-16T18:20:22.288Z,97291.56
2018-05-16T18:22:53.353Z,97291.82
2018-05-16T18:25:24.358Z,97295.50
2018-05-16T18:27:55.469Z,97303.08
2018-05-16T18:30:26.444Z,97296.59
2018-05-16T18:32:57.453Z,97298.44
2018-05-16T18:35:28.389Z,97296.28
2018-05-16T18:37:59.384Z,97299.25
2018-05-16T18:40:30.372Z,97303.47
2018-05-16T18:43:03.193Z,97309.27
2018-05-16T18:45:34.308Z,97306.89
2018-05-16T18:48:05.297Z,97311.83
2018-05-16T18:50:36.320Z,97313.47
2018-05-16T18:53:07.294Z,97307.53
2018-05-16T18:55:38.384Z,97305.61
2018-05-16T18:58:09.386Z,97315.19
2018-05-16T19:00:40.439Z,97309.28
2018-05-16T19:03:11.465Z,97318.86
2018-05-16T19:05:42.491Z,97319.92
2018-05-16T19:08:13.546Z,97315.25
2018-05-16T19:10:44.540Z,97320.38
2018-05-16T19:13:15.550Z,97318.77
2018-05-16T19:15:46.550Z,97317.78
2018-05-16T19:18:17.568Z,97320.63
2018-05-16T19:20:48.577Z,97319.49
2018-05-16T19:23:19.576Z,97318.58
2018-05-16T19:25:50.588Z,97319.39
2018-05-16T19:28:21.610Z,97326.89
2018-05-16T19:30:52.674Z,97328.30
2018-05-16T19:33:23.687Z,97328.08
2018-05-16T19:35:54.731Z,97335.19
2018-05-16T19:38:25.759Z,97329.96
2018-05-16T19:40:56.771Z,97340.30
2018-05-16T19:43:27.812Z,97343.98
2018-05-16T19:45:58.862Z,97341.78
2018-05-16T19:48:29.867Z,97339.05
2018-05-16T19:51:00.891Z,97328.25
2018-05-16T19:53:31.918Z,97332.95
2018-05-16T19:56:02.919Z,97335.13
2018-05-16T19:58:34.024Z,97334.61
2018-05-16T20:01:04.935Z,97334.13
2018-05-16T20:03:35.936Z,97335.11
2018-05-16T20:06:06.939Z,97326.68
2018-05-16T20:08:38.016Z,97337.21
2018-05-16T20:11:09.073Z,97337.88
2018-05-16T20:13:40.102Z,97337.94
2018-05-16T20:16:11.110Z,97340.84
2018-05-16T20:18:42.165Z,97340.27
2018-05-16T20:21:13.193Z,97343.59
2018-05-16T20:23:44.203Z,97345.58
2018-05-16T20:26:15.231Z,97353.84
2018-05-16T20:28:46.227Z,97354.14
2018-05-16T20:31:17.250Z,97357.83
2018-05-16T20:33:48.286Z,97355.62
2018-05-16T20:36:19.378Z,97357.98
2018-05-16T20:38:50.371Z,97354.37
2018-05-16T20:41:21.417Z,97360.47
2018-05-16T20:43:52.433Z,97351.60
2018-05-16T20:46:23.434Z,97356.94
2018-05-16T20:48:54.534Z,97357.88
2018-05-16T20:51:25.553Z,97360.22
2018-05-16T20:53:56.611Z,97363.69
2018-05-16T20:56:27.591Z,97359.55
2018-05-16T20:58:58.690Z,97360.86
2018-05-16T21:01:29.686Z,97353.00
2018-05-16T21:04:00.781Z,97350.61
2018-05-16T21:06:31.847Z,97348.20
2018-05-16T21:09:02.943Z,97353.38
2018-05-16T21:11:33.986Z,97353.52
2018-05-16T21:14:04.971Z,97357.23
2018-05-16T21:16:35.930Z,97354.02
2018-05-16T21:19:06.925Z,97355.45
2018-05-16T21:21:37.924Z,97355.62
2018-05-16T21:24:08.928Z,97350.47
2018-05-16T21:26:39.906Z,97356.99
2018-05-16T21:29:10.971Z,97360.52
2018-05-16T21:31:41.946Z,97355.44
2018-05-16T21:34:12.983Z,97353.79
2018-05-16T21:36:43.969Z,97355.64
2018-05-16T21:39:15.011Z,97352.06
2018-05-16T21:41:46.011Z,97355.91
2018-05-16T21:44:17.001Z,97359.44
2018-05-16T21:46:47.969Z,97362.34
2018-05-16T21:49:18.957Z,97364.94
2018-05-16T21:51:49.959Z,97368.52
2018-05-16T21:54:20.951Z,97378.95
2018-05-16T21:56:51.934Z,97384.59
2018-05-16T21:59:22.938Z,97386.05
2018-05-16T22:01:53.914Z,97386.45
2018-05-16T22:04:24.951Z,97392.80
2018-05-16T22:06:55.927Z,97383.55
2018-05-16T22:09:26.913Z,97396.92
2018-05-16T22:11:57.913Z,97399.00
2018-05-16T22:14:28.902Z,97398.54
2018-05-16T22:16:59.953Z,97400.00
2018-05-16T22:19:30.954Z,97406.41
2018-05-16T22:22:01.970Z,97403.58
2018-05-16T22:24:33.011Z,97403.23
2018-05-16T22:27:04.040Z,97409.11
2018-05-16T22:29:35.032Z,97408.02
2018-05-16T22:32:12.035Z,97401.65
2018-05-16T22:34:49.136Z,97394.56
2018-05-16T22:37:26.185Z,97396.53
2018-05-16T22:40:03.355Z,97388.97
2018-05-16T22:42:34.286Z,97390.95
2018-05-16T22:45:08.140Z,97389.55
2018-05-16T22:47:39.151Z,97401.32
2018-05-16T22:50:10.190Z,97389.61
2018-05-16T22:52:41.175Z,97385.78
2018-05-16T22:55:12.187Z,97385.95
2018-05-16T22:57:43.220Z,97381.41
2018-05-16T23:00:17.145Z,97375.31
2018-05-16T23:02:48.155Z,97375.44
2018-05-16T23:05:19.121Z,97376.98
2018-05-16T23:07:50.140Z,97375.39
2018-05-16T23:10:21.124Z,97370.95
2018-05-16T23:12:52.139Z,97366.27
2018-05-16T23:15:23.128Z,97360.30
2018-05-16T23:17:54.248Z,97365.34
2018-05-16T23:20:25.230Z,97358.80
2018-05-16T23:22:56.222Z,97361.63
2018-05-16T23:25:27.192Z,97359.73
2018-05-16T23:27:58.201Z,97366.23
2018-05-16T23:30:29.157Z,97365.16
2018-05-16T23:33:00.222Z,97356.88
2018-05-16T23:35:31.216Z,97368.16
2018-05-16T23:38:02.200Z,97365.30
2018-05-16T23:40:33.184Z,97362.91
2018-05-16T23:43:04.167Z,97366.84
2018-05-16T23:45:35.134Z,97371.33
2018-05-16T23:48:06.181Z,97363.98
2018-05-16T23:50:37.136Z,97367.97
2018-05-16T23:53:08.144Z,97365.97
2018-05-16T23:55:39.152Z,97369.63
2018-05-16T23:58:10.187Z,97375.80
